sensor_id;sensor_type;location;lat;lon;timestamp;P1;durP1;ratioP1;P2;durP2;ratioP2
71003;SDS011;59025;42.050;-8.660;2022-07-18T00:02:03;18.60;;;9.77;;
71003;SDS011;59025;42.050;-8.660;2022-07-18T00:04:31;17.98;;;9.48;;
71003;SDS011;59025;42.050;-8.660;2022-07-18T00:06:59;18.80;;;10.43;;
71003;SDS011;59025;42.050;-8.660;2022-07-18T00:09:28;19.80;;;10.63;;
71003;SDS011;59025;42.050;-8.660;2022-07-18T00:11:58;16.40;;;9.50;;
71003;SDS011;59025;42.050;-8.660;2022-07-18T00:14:26;16.92;;;9.80;;
71003;SDS011;59025;42.050;-8.660;2022-07-18T00:16:54;16.60;;;9.98;;
71003;SDS011;59025;42.050;-8.660;2022-07-18T00:19:21;16.13;;;9.77;;
71003;SDS011;59025;42.050;-8.660;2022-07-18T00:21:52;17.70;;;9.45;;
71003;SDS011;59025;42.050;-8.660;2022-07-18T00:24:19;18.25;;;9.45;;
71003;SDS011;59025;42.050;-8.660;2022-07-18T00:26:49;19.40;;;9.57;;
71003;SDS011;59025;42.050;-8.660;2022-07-18T00:29:27;15.68;;;9.98;;
71003;SDS011;59025;42.050;-8.660;2022-07-18T00:32:02;16.90;;;9.40;;
71003;SDS011;59025;42.050;-8.660;2022-07-18T00:34:30;15.73;;;9.13;;
71003;SDS011;59025;42.050;-8.660;2022-07-18T00:36:57;17.13;;;9.20;;
71003;SDS011;59025;42.050;-8.660;2022-07-18T00:39:25;15.60;;;8.90;;
71003;SDS011;59025;42.050;-8.660;2022-07-18T00:41:53;15.30;;;9.32;;
71003;SDS011;59025;42.050;-8.660;2022-07-18T00:44:21;17.17;;;9.47;;
71003;SDS011;59025;42.050;-8.660;2022-07-18T00:46:52;19.75;;;10.20;;
71003;SDS011;59025;42.050;-8.660;2022-07-18T00:49:21;18.88;;;10.20;;
71003;SDS011;59025;42.050;-8.660;2022-07-18T00:51:48;17.80;;;10.45;;
71003;SDS011;59025;42.050;-8.660;2022-07-18T00:54:16;14.88;;;8.95;;
71003;SDS011;59025;42.050;-8.660;2022-07-18T00:56:43;16.93;;;9.27;;
71003;SDS011;59025;42.050;-8.660;2022-07-18T00:59:11;16.80;;;9.52;;
71003;SDS011;59025;42.050;-8.660;2022-07-18T01:01:39;16.92;;;9.52;;
71003;SDS011;59025;42.050;-8.660;2022-07-18T01:04:12;17.20;;;10.13;;
71003;SDS011;59025;42.050;-8.660;2022-07-18T01:06:40;17.38;;;10.30;;
71003;SDS011;59025;42.050;-8.660;2022-07-18T01:09:08;18.43;;;10.03;;
71003;SDS011;59025;42.050;-8.660;2022-07-18T01:11:36;17.48;;;9.85;;
71003;SDS011;59025;42.050;-8.660;2022-07-18T01:14:05;17.38;;;10.30;;
71003;SDS011;59025;42.050;-8.660;2022-07-18T01:16:33;19.05;;;10.23;;
71003;SDS011;59025;42.050;-8.660;2022-07-18T01:19:01;17.10;;;9.98;;
71003;SDS011;59025;42.050;-8.660;2022-07-18T01:21:31;19.77;;;10.50;;
71003;SDS011;59025;42.050;-8.660;2022-07-18T01:23:58;16.92;;;10.10;;
71003;SDS011;59025;42.050;-8.660;2022-07-18T01:26:26;17.38;;;10.50;;
71003;SDS011;59025;42.050;-8.660;2022-07-18T01:28:53;19.15;;;9.63;;
71003;SDS011;59025;42.050;-8.660;2022-07-18T01:31:21;18.02;;;10.52;;
71003;SDS011;59025;42.050;-8.660;2022-07-18T01:33:48;18.93;;;10.40;;
71003;SDS011;59025;42.050;-8.660;2022-07-18T01:36:16;18.38;;;10.35;;
71003;SDS011;59025;42.050;-8.660;2022-07-18T01:38:45;21.20;;;9.60;;
71003;SDS011;59025;42.050;-8.660;2022-07-18T01:41:12;14.10;;;9.57;;
71003;SDS011;59025;42.050;-8.660;2022-07-18T01:43:40;16.27;;;10.80;;
71003;SDS011;59025;42.050;-8.660;2022-07-18T01:46:08;17.60;;;11.07;;
71003;SDS011;59025;42.050;-8.660;2022-07-18T01:48:37;19.27;;;10.95;;
71003;SDS011;59025;42.050;-8.660;2022-07-18T01:51:05;19.67;;;10.10;;
71003;SDS011;59025;42.050;-8.660;2022-07-18T01:53:35;16.75;;;9.75;;
71003;SDS011;59025;42.050;-8.660;2022-07-18T01:56:05;15.50;;;9.18;;
71003;SDS011;59025;42.050;-8.660;2022-07-18T01:58:33;16.10;;;9.03;;
71003;SDS011;59025;42.050;-8.660;2022-07-18T02:01:00;16.08;;;10.25;;
71003;SDS011;59025;42.050;-8.660;2022-07-18T02:03:28;18.48;;;10.20;;
71003;SDS011;59025;42.050;-8.660;2022-07-18T02:05:56;17.77;;;10.25;;
71003;SDS011;59025;42.050;-8.660;2022-07-18T02:08:24;16.85;;;9.45;;
71003;SDS011;59025;42.050;-8.660;2022-07-18T02:10:51;14.93;;;8.97;;
71003;SDS011;59025;42.050;-8.660;2022-07-18T02:13:20;17.27;;;9.70;;
71003;SDS011;59025;42.050;-8.660;2022-07-18T02:15:48;14.88;;;9.38;;
71003;SDS011;59025;42.050;-8.660;2022-07-18T02:18:16;19.83;;;10.80;;
71003;SDS011;59025;42.050;-8.660;2022-07-18T02:20:43;17.00;;;9.25;;
71003;SDS011;59025;42.050;-8.660;2022-07-18T02:23:11;15.65;;;10.07;;
71003;SDS011;59025;42.050;-8.660;2022-07-18T02:25:38;16.90;;;10.07;;
71003;SDS011;59025;42.050;-8.660;2022-07-18T02:28:05;16.23;;;10.73;;
71003;SDS011;59025;42.050;-8.660;2022-07-18T02:30:34;17.38;;;10.70;;
71003;SDS011;59025;42.050;-8.660;2022-07-18T02:33:02;15.98;;;9.40;;
71003;SDS011;59025;42.050;-8.660;2022-07-18T02:35:29;17.05;;;9.90;;
71003;SDS011;59025;42.050;-8.660;2022-07-18T02:37:57;16.00;;;9.67;;
71003;SDS011;59025;42.050;-8.660;2022-07-18T02:40:24;14.05;;;9.48;;
71003;SDS011;59025;42.050;-8.660;2022-07-18T02:42:52;17.02;;;9.52;;
71003;SDS011;59025;42.050;-8.660;2022-07-18T02:45:19;17.52;;;9.65;;
71003;SDS011;59025;42.050;-8.660;2022-07-18T02:47:48;18.40;;;9.30;;
71003;SDS011;59025;42.050;-8.660;2022-07-18T02:50:16;17.63;;;9.47;;
71003;SDS011;59025;42.050;-8.660;2022-07-18T02:52:43;18.63;;;10.80;;
71003;SDS011;59025;42.050;-8.660;2022-07-18T02:55:11;18.25;;;9.55;;
71003;SDS011;59025;42.050;-8.660;2022-07-18T02:57:40;17.00;;;10.18;;
71003;SDS011;59025;42.050;-8.660;2022-07-18T03:00:09;19.23;;;10.02;;
71003;SDS011;59025;42.050;-8.660;2022-07-18T03:02:37;16.47;;;9.73;;
71003;SDS011;59025;42.050;-8.660;2022-07-18T03:05:07;16.25;;;9.27;;
71003;SDS011;59025;42.050;-8.660;2022-07-18T03:07:35;15.05;;;8.55;;
71003;SDS011;59025;42.050;-8.660;2022-07-18T03:10:02;19.08;;;9.63;;
71003;SDS011;59025;42.050;-8.660;2022-07-18T03:12:31;15.95;;;9.05;;
71003;SDS011;59025;42.050;-8.660;2022-07-18T03:14:59;14.27;;;8.50;;
71003;SDS011;59025;42.050;-8.660;2022-07-18T03:17:26;15.63;;;8.20;;
71003;SDS011;59025;42.050;-8.660;2022-07-18T03:19:53;16.23;;;9.23;;
71003;SDS011;59025;42.050;-8.660;2022-07-18T03:22:22;15.90;;;7.97;;
71003;SDS011;59025;42.050;-8.660;2022-07-18T03:24:50;14.52;;;8.80;;
71003;SDS011;59025;42.050;-8.660;2022-07-18T03:27:17;14.57;;;8.47;;
71003;SDS011;59025;42.050;-8.660;2022-07-18T03:29:44;14.45;;;8.32;;
71003;SDS011;59025;42.050;-8.660;2022-07-18T03:32:12;14.20;;;8.88;;
71003;SDS011;59025;42.050;-8.660;2022-07-18T03:34:39;13.50;;;9.23;;
71003;SDS011;59025;42.050;-8.660;2022-07-18T03:37:07;15.75;;;9.30;;
71003;SDS011;59025;42.050;-8.660;2022-07-18T03:39:36;16.93;;;9.50;;
71003;SDS011;59025;42.050;-8.660;2022-07-18T03:42:03;16.10;;;9.52;;
71003;SDS011;59025;42.050;-8.660;2022-07-18T03:44:30;18.13;;;10.10;;
71003;SDS011;59025;42.050;-8.660;2022-07-18T03:46:58;16.55;;;9.65;;
71003;SDS011;59025;42.050;-8.660;2022-07-18T03:49:25;17.30;;;9.52;;
71003;SDS011;59025;42.050;-8.660;2022-07-18T03:51:53;18.57;;;10.10;;
71003;SDS011;59025;42.050;-8.660;2022-07-18T03:54:21;17.38;;;10.07;;
71003;SDS011;59025;42.050;-8.660;2022-07-18T03:56:50;18.60;;;10.15;;
71003;SDS011;59025;42.050;-8.660;2022-07-18T03:59:17;17.75;;;10.20;;
71003;SDS011;59025;42.050;-8.660;2022-07-18T04:01:45;20.90;;;11.40;;
71003;SDS011;59025;42.050;-8.660;2022-07-18T04:04:12;20.70;;;11.73;;
71003;SDS011;59025;42.050;-8.660;2022-07-18T04:06:40;16.30;;;11.05;;
71003;SDS011;59025;42.050;-8.660;2022-07-18T04:09:07;20.63;;;10.93;;
71003;SDS011;59025;42.050;-8.660;2022-07-18T04:11:35;20.92;;;11.35;;
71003;SDS011;59025;42.050;-8.660;2022-07-18T04:14:04;18.58;;;10.95;;
71003;SDS011;59025;42.050;-8.660;2022-07-18T04:16:31;18.40;;;10.60;;
71003;SDS011;59025;42.050;-8.660;2022-07-18T04:18:58;18.33;;;11.65;;
71003;SDS011;59025;42.050;-8.660;2022-07-18T04:21:26;19.35;;;10.88;;
71003;SDS011;59025;42.050;-8.660;2022-07-18T04:23:53;19.73;;;11.38;;
71003;SDS011;59025;42.050;-8.660;2022-07-18T04:26:21;18.05;;;10.68;;
71003;SDS011;59025;42.050;-8.660;2022-07-18T04:28:48;19.70;;;10.60;;
71003;SDS011;59025;42.050;-8.660;2022-07-18T04:31:17;17.33;;;10.45;;
71003;SDS011;59025;42.050;-8.660;2022-07-18T04:33:44;19.15;;;10.13;;
71003;SDS011;59025;42.050;-8.660;2022-07-18T04:36:12;18.98;;;10.45;;
71003;SDS011;59025;42.050;-8.660;2022-07-18T04:38:39;18.83;;;10.25;;
71003;SDS011;59025;42.050;-8.660;2022-07-18T04:41:07;16.27;;;10.23;;
71003;SDS011;59025;42.050;-8.660;2022-07-18T04:43:34;17.88;;;9.88;;
71003;SDS011;59025;42.050;-8.660;2022-07-18T04:46:02;19.73;;;10.38;;
71003;SDS011;59025;42.050;-8.660;2022-07-18T04:48:31;17.65;;;10.45;;
71003;SDS011;59025;42.050;-8.660;2022-07-18T04:50:58;19.35;;;10.13;;
71003;SDS011;59025;42.050;-8.660;2022-07-18T04:53:26;18.53;;;10.77;;
71003;SDS011;59025;42.050;-8.660;2022-07-18T04:55:53;17.13;;;10.13;;
71003;SDS011;59025;42.050;-8.660;2022-07-18T04:58:20;17.40;;;9.75;;
71003;SDS011;59025;42.050;-8.660;2022-07-18T05:00:48;20.27;;;9.93;;
71003;SDS011;59025;42.050;-8.660;2022-07-18T05:03:15;16.27;;;9.40;;
71003;SDS011;59025;42.050;-8.660;2022-07-18T05:05:44;20.23;;;9.70;;
71003;SDS011;59025;42.050;-8.660;2022-07-18T05:08:11;17.30;;;10.18;;
71003;SDS011;59025;42.050;-8.660;2022-07-18T05:10:39;19.02;;;9.07;;
71003;SDS011;59025;42.050;-8.660;2022-07-18T05:13:07;18.52;;;10.07;;
71003;SDS011;59025;42.050;-8.660;2022-07-18T05:15:34;15.98;;;10.23;;
71003;SDS011;59025;42.050;-8.660;2022-07-18T05:18:02;18.70;;;9.77;;
71003;SDS011;59025;42.050;-8.660;2022-07-18T05:20:29;17.53;;;9.33;;
71003;SDS011;59025;42.050;-8.660;2022-07-18T05:22:58;19.35;;;10.93;;
71003;SDS011;59025;42.050;-8.660;2022-07-18T05:25:26;17.02;;;9.95;;
71003;SDS011;59025;42.050;-8.660;2022-07-18T05:27:53;16.63;;;9.23;;
71003;SDS011;59025;42.050;-8.660;2022-07-18T05:30:21;15.07;;;9.63;;
71003;SDS011;59025;42.050;-8.660;2022-07-18T05:32:50;16.40;;;9.33;;
71003;SDS011;59025;42.050;-8.660;2022-07-18T05:35:19;17.58;;;9.50;;
71003;SDS011;59025;42.050;-8.660;2022-07-18T05:37:46;16.30;;;10.88;;
71003;SDS011;59025;42.050;-8.660;2022-07-18T05:40:16;13.60;;;8.63;;
71003;SDS011;59025;42.050;-8.660;2022-07-18T05:42:43;16.15;;;8.90;;
71003;SDS011;59025;42.050;-8.660;2022-07-18T05:45:11;17.77;;;10.17;;
71003;SDS011;59025;42.050;-8.660;2022-07-18T05:47:38;13.32;;;8.90;;
71003;SDS011;59025;42.050;-8.660;2022-07-18T05:50:07;16.05;;;8.48;;
71003;SDS011;59025;42.050;-8.660;2022-07-18T05:52:35;17.08;;;8.85;;
71003;SDS011;59025;42.050;-8.660;2022-07-18T05:55:03;15.57;;;8.60;;
71003;SDS011;59025;42.050;-8.660;2022-07-18T05:57:33;17.00;;;7.90;;
71003;SDS011;59025;42.050;-8.660;2022-07-18T06:00:02;14.30;;;8.52;;
71003;SDS011;59025;42.050;-8.660;2022-07-18T06:02:30;15.57;;;8.30;;
71003;SDS011;59025;42.050;-8.660;2022-07-18T06:04:58;13.90;;;7.03;;
71003;SDS011;59025;42.050;-8.660;2022-07-18T06:07:26;14.10;;;8.00;;
71003;SDS011;59025;42.050;-8.660;2022-07-18T06:09:53;14.93;;;7.63;;
71003;SDS011;59025;42.050;-8.660;2022-07-18T06:12:20;18.00;;;7.53;;
71003;SDS011;59025;42.050;-8.660;2022-07-18T06:14:50;12.10;;;6.72;;
71003;SDS011;59025;42.050;-8.660;2022-07-18T06:17:17;14.18;;;7.03;;
71003;SDS011;59025;42.050;-8.660;2022-07-18T06:19:45;13.18;;;7.03;;
71003;SDS011;59025;42.050;-8.660;2022-07-18T06:22:12;20.17;;;8.23;;
71003;SDS011;59025;42.050;-8.660;2022-07-18T06:24:40;13.20;;;6.85;;
71003;SDS011;59025;42.050;-8.660;2022-07-18T06:27:07;13.43;;;7.50;;
71003;SDS011;59025;42.050;-8.660;2022-07-18T06:29:34;14.10;;;7.28;;
71003;SDS011;59025;42.050;-8.660;2022-07-18T06:32:04;13.45;;;6.30;;
71003;SDS011;59025;42.050;-8.660;2022-07-18T06:34:32;15.07;;;6.97;;
71003;SDS011;59025;42.050;-8.660;2022-07-18T06:36:59;14.13;;;6.47;;
71003;SDS011;59025;42.050;-8.660;2022-07-18T06:39:26;12.93;;;6.18;;
71003;SDS011;59025;42.050;-8.660;2022-07-18T06:41:54;14.18;;;6.88;;
71003;SDS011;59025;42.050;-8.660;2022-07-18T06:44:21;13.07;;;7.10;;
71003;SDS011;59025;42.050;-8.660;2022-07-18T06:46:49;12.77;;;6.03;;
71003;SDS011;59025;42.050;-8.660;2022-07-18T06:49:18;9.80;;;5.90;;
71003;SDS011;59025;42.050;-8.660;2022-07-18T06:51:46;13.60;;;6.10;;
71003;SDS011;59025;42.050;-8.660;2022-07-18T06:54:13;18.63;;;6.65;;
71003;SDS011;59025;42.050;-8.660;2022-07-18T06:56:41;12.98;;;5.93;;
71003;SDS011;59025;42.050;-8.660;2022-07-18T06:59:08;16.23;;;7.60;;
71003;SDS011;59025;42.050;-8.660;2022-07-18T07:01:36;16.65;;;6.28;;
71003;SDS011;59025;42.050;-8.660;2022-07-18T07:04:03;15.27;;;6.80;;
71003;SDS011;59025;42.050;-8.660;2022-07-18T07:06:32;11.70;;;6.40;;
71003;SDS011;59025;42.050;-8.660;2022-07-18T07:09:02;12.75;;;6.63;;
71003;SDS011;59025;42.050;-8.660;2022-07-18T07:11:30;12.63;;;6.17;;
71003;SDS011;59025;42.050;-8.660;2022-07-18T07:13:57;13.30;;;6.50;;
71003;SDS011;59025;42.050;-8.660;2022-07-18T07:16:25;13.95;;;7.10;;
71003;SDS011;59025;42.050;-8.660;2022-07-18T07:18:53;14.38;;;7.20;;
71003;SDS011;59025;42.050;-8.660;2022-07-18T07:21:21;11.35;;;7.03;;
71003;SDS011;59025;42.050;-8.660;2022-07-18T07:23:50;14.40;;;7.13;;
71003;SDS011;59025;42.050;-8.660;2022-07-18T07:26:17;11.77;;;6.93;;
71003;SDS011;59025;42.050;-8.660;2022-07-18T07:28:44;12.65;;;6.65;;
71003;SDS011;59025;42.050;-8.660;2022-07-18T07:31:12;12.40;;;7.10;;
71003;SDS011;59025;42.050;-8.660;2022-07-18T07:33:39;13.25;;;6.78;;
71003;SDS011;59025;42.050;-8.660;2022-07-18T07:36:09;13.13;;;7.27;;
71003;SDS011;59025;42.050;-8.660;2022-07-18T07:38:37;14.65;;;7.20;;
71003;SDS011;59025;42.050;-8.660;2022-07-18T07:41:06;13.32;;;7.43;;
71003;SDS011;59025;42.050;-8.660;2022-07-18T07:43:34;11.93;;;6.43;;
71003;SDS011;59025;42.050;-8.660;2022-07-18T07:46:03;12.15;;;6.95;;
71003;SDS011;59025;42.050;-8.660;2022-07-18T07:48:31;12.83;;;6.13;;
71003;SDS011;59025;42.050;-8.660;2022-07-18T07:50:58;11.40;;;6.65;;
71003;SDS011;59025;42.050;-8.660;2022-07-18T07:53:28;11.50;;;5.97;;
71003;SDS011;59025;42.050;-8.660;2022-07-18T07:55:56;9.88;;;5.60;;
71003;SDS011;59025;42.050;-8.660;2022-07-18T07:58:25;9.90;;;6.50;;
71003;SDS011;59025;42.050;-8.660;2022-07-18T08:00:52;9.60;;;5.67;;
71003;SDS011;59025;42.050;-8.660;2022-07-18T08:03:20;11.60;;;5.55;;
71003;SDS011;59025;42.050;-8.660;2022-07-18T08:05:48;10.90;;;5.70;;
71003;SDS011;59025;42.050;-8.660;2022-07-18T08:08:16;9.98;;;5.32;;
71003;SDS011;59025;42.050;-8.660;2022-07-18T08:10:44;9.75;;;5.00;;
71003;SDS011;59025;42.050;-8.660;2022-07-18T08:13:13;11.57;;;4.47;;
71003;SDS011;59025;42.050;-8.660;2022-07-18T08:15:42;10.88;;;5.57;;
71003;SDS011;59025;42.050;-8.660;2022-07-18T08:18:10;8.52;;;5.20;;
71003;SDS011;59025;42.050;-8.660;2022-07-18T08:20:37;8.38;;;4.60;;
71003;SDS011;59025;42.050;-8.660;2022-07-18T08:23:06;9.68;;;4.88;;
71003;SDS011;59025;42.050;-8.660;2022-07-18T08:25:36;9.37;;;4.70;;
71003;SDS011;59025;42.050;-8.660;2022-07-18T08:28:04;10.93;;;4.93;;
71003;SDS011;59025;42.050;-8.660;2022-07-18T08:30:33;8.05;;;4.57;;
71003;SDS011;59025;42.050;-8.660;2022-07-18T08:33:04;8.52;;;4.60;;
71003;SDS011;59025;42.050;-8.660;2022-07-18T08:35:32;10.25;;;4.82;;
71003;SDS011;59025;42.050;-8.660;2022-07-18T08:38:00;8.80;;;3.90;;
71003;SDS011;59025;42.050;-8.660;2022-07-18T08:40:28;6.82;;;3.95;;
71003;SDS011;59025;42.050;-8.660;2022-07-18T08:42:56;9.20;;;4.00;;
71003;SDS011;59025;42.050;-8.660;2022-07-18T08:45:24;9.10;;;4.20;;
71003;SDS011;59025;42.050;-8.660;2022-07-18T08:47:52;8.13;;;4.10;;
71003;SDS011;59025;42.050;-8.660;2022-07-18T08:50:21;8.43;;;3.97;;
71003;SDS011;59025;42.050;-8.660;2022-07-18T08:52:49;8.73;;;3.95;;
71003;SDS011;59025;42.050;-8.660;2022-07-18T08:55:16;6.97;;;3.63;;
71003;SDS011;59025;42.050;-8.660;2022-07-18T08:57:44;9.00;;;4.07;;
71003;SDS011;59025;42.050;-8.660;2022-07-18T09:00:12;7.97;;;4.18;;
71003;SDS011;59025;42.050;-8.660;2022-07-18T09:02:39;6.17;;;3.87;;
71003;SDS011;59025;42.050;-8.660;2022-07-18T09:05:16;8.38;;;3.35;;
71003;SDS011;59025;42.050;-8.660;2022-07-18T09:07:47;6.88;;;3.60;;
71003;SDS011;59025;42.050;-8.660;2022-07-18T09:10:15;6.75;;;3.40;;
71003;SDS011;59025;42.050;-8.660;2022-07-18T09:12:54;7.07;;;3.20;;
71003;SDS011;59025;42.050;-8.660;2022-07-18T09:15:24;7.90;;;4.20;;
71003;SDS011;59025;42.050;-8.660;2022-07-18T09:17:55;8.93;;;3.80;;
71003;SDS011;59025;42.050;-8.660;2022-07-18T09:20:23;7.25;;;3.45;;
71003;SDS011;59025;42.050;-8.660;2022-07-18T09:22:52;7.72;;;3.35;;
71003;SDS011;59025;42.050;-8.660;2022-07-18T09:25:20;7.13;;;3.80;;
71003;SDS011;59025;42.050;-8.660;2022-07-18T09:27:50;8.90;;;3.90;;
71003;SDS011;59025;42.050;-8.660;2022-07-18T09:30:21;7.47;;;3.78;;
71003;SDS011;59025;42.050;-8.660;2022-07-18T09:32:51;9.98;;;4.10;;
71003;SDS011;59025;42.050;-8.660;2022-07-18T09:35:23;6.80;;;3.70;;
71003;SDS011;59025;42.050;-8.660;2022-07-18T09:38:01;6.20;;;3.35;;
71003;SDS011;59025;42.050;-8.660;2022-07-18T09:40:33;9.83;;;3.87;;
71003;SDS011;59025;42.050;-8.660;2022-07-18T09:43:05;6.63;;;3.80;;
71003;SDS011;59025;42.050;-8.660;2022-07-18T09:45:34;9.02;;;3.60;;
71003;SDS011;59025;42.050;-8.660;2022-07-18T09:48:04;7.95;;;3.88;;
71003;SDS011;59025;42.050;-8.660;2022-07-18T09:50:33;8.95;;;4.03;;
71003;SDS011;59025;42.050;-8.660;2022-07-18T09:53:04;8.83;;;3.87;;
71003;SDS011;59025;42.050;-8.660;2022-07-18T09:55:34;7.28;;;3.80;;
71003;SDS011;59025;42.050;-8.660;2022-07-18T09:58:03;8.07;;;3.88;;
71003;SDS011;59025;42.050;-8.660;2022-07-18T10:00:32;8.13;;;4.00;;
71003;SDS011;59025;42.050;-8.660;2022-07-18T10:03:01;7.93;;;3.70;;
71003;SDS011;59025;42.050;-8.660;2022-07-18T10:05:30;7.77;;;4.00;;
71003;SDS011;59025;42.050;-8.660;2022-07-18T10:07:59;9.07;;;4.13;;
71003;SDS011;59025;42.050;-8.660;2022-07-18T10:10:30;10.40;;;3.72;;
71003;SDS011;59025;42.050;-8.660;2022-07-18T10:12:59;6.80;;;3.67;;
71003;SDS011;59025;42.050;-8.660;2022-07-18T10:15:28;11.52;;;3.75;;
71003;SDS011;59025;42.050;-8.660;2022-07-18T10:17:57;6.80;;;3.50;;
71003;SDS011;59025;42.050;-8.660;2022-07-18T10:20:29;6.75;;;2.88;;
71003;SDS011;59025;42.050;-8.660;2022-07-18T10:23:00;6.65;;;3.22;;
71003;SDS011;59025;42.050;-8.660;2022-07-18T10:25:35;7.80;;;3.20;;
71003;SDS011;59025;42.050;-8.660;2022-07-18T10:28:06;6.32;;;3.17;;
71003;SDS011;59025;42.050;-8.660;2022-07-18T10:30:36;6.70;;;2.90;;
71003;SDS011;59025;42.050;-8.660;2022-07-18T10:36:04;7.57;;;3.70;;
71003;SDS011;59025;42.050;-8.660;2022-07-18T10:38:33;8.25;;;3.58;;
71003;SDS011;59025;42.050;-8.660;2022-07-18T10:41:02;9.45;;;3.55;;
71003;SDS011;59025;42.050;-8.660;2022-07-18T10:43:36;6.30;;;2.70;;
71003;SDS011;59025;42.050;-8.660;2022-07-18T10:46:05;5.97;;;2.95;;
71003;SDS011;59025;42.050;-8.660;2022-07-18T10:51:30;9.27;;;2.65;;
71003;SDS011;59025;42.050;-8.660;2022-07-18T10:54:06;8.30;;;3.03;;
71003;SDS011;59025;42.050;-8.660;2022-07-18T10:59:38;7.35;;;2.80;;
71003;SDS011;59025;42.050;-8.660;2022-07-18T11:02:28;8.88;;;3.72;;
71003;SDS011;59025;42.050;-8.660;2022-07-18T11:04:57;6.38;;;2.70;;
71003;SDS011;59025;42.050;-8.660;2022-07-18T11:07:25;8.57;;;3.55;;
71003;SDS011;59025;42.050;-8.660;2022-07-18T11:09:53;6.00;;;2.50;;
71003;SDS011;59025;42.050;-8.660;2022-07-18T11:12:23;5.93;;;2.80;;
71003;SDS011;59025;42.050;-8.660;2022-07-18T11:14:59;6.40;;;3.10;;
71003;SDS011;59025;42.050;-8.660;2022-07-18T11:20:40;6.20;;;3.25;;
71003;SDS011;59025;42.050;-8.660;2022-07-18T11:23:18;7.57;;;3.70;;
71003;SDS011;59025;42.050;-8.660;2022-07-18T11:25:47;6.93;;;3.35;;
71003;SDS011;59025;42.050;-8.660;2022-07-18T11:28:17;7.20;;;3.53;;
71003;SDS011;59025;42.050;-8.660;2022-07-18T11:30:45;8.73;;;3.10;;
71003;SDS011;59025;42.050;-8.660;2022-07-18T11:33:25;6.63;;;3.05;;
71003;SDS011;59025;42.050;-8.660;2022-07-18T11:36:01;7.90;;;3.00;;
71003;SDS011;59025;42.050;-8.660;2022-07-18T11:38:30;8.07;;;3.15;;
71003;SDS011;59025;42.050;-8.660;2022-07-18T11:40:57;6.90;;;3.00;;
71003;SDS011;59025;42.050;-8.660;2022-07-18T11:43:26;7.43;;;2.90;;
71003;SDS011;59025;42.050;-8.660;2022-07-18T11:46:04;9.90;;;3.08;;
71003;SDS011;59025;42.050;-8.660;2022-07-18T11:48:32;7.13;;;3.03;;
71003;SDS011;59025;42.050;-8.660;2022-07-18T11:51:01;6.78;;;2.83;;
71003;SDS011;59025;42.050;-8.660;2022-07-18T11:53:29;7.90;;;3.20;;
71003;SDS011;59025;42.050;-8.660;2022-07-18T11:55:56;8.63;;;3.20;;
71003;SDS011;59025;42.050;-8.660;2022-07-18T11:58:36;6.78;;;3.00;;
71003;SDS011;59025;42.050;-8.660;2022-07-18T12:01:05;9.23;;;2.67;;
71003;SDS011;59025;42.050;-8.660;2022-07-18T12:03:33;8.77;;;2.80;;
71003;SDS011;59025;42.050;-8.660;2022-07-18T12:06:09;7.28;;;2.78;;
71003;SDS011;59025;42.050;-8.660;2022-07-18T12:08:40;5.85;;;2.90;;
71003;SDS011;59025;42.050;-8.660;2022-07-18T12:11:11;5.72;;;2.72;;
71003;SDS011;59025;42.050;-8.660;2022-07-18T12:13:51;5.23;;;2.60;;
71003;SDS011;59025;42.050;-8.660;2022-07-18T12:16:24;7.30;;;3.03;;
71003;SDS011;59025;42.050;-8.660;2022-07-18T12:18:53;6.53;;;2.80;;
71003;SDS011;59025;42.050;-8.660;2022-07-18T12:21:21;7.53;;;2.92;;
71003;SDS011;59025;42.050;-8.660;2022-07-18T12:23:49;5.13;;;2.70;;
71003;SDS011;59025;42.050;-8.660;2022-07-18T12:26:26;10.53;;;2.80;;
71003;SDS011;59025;42.050;-8.660;2022-07-18T12:29:08;7.85;;;2.58;;
71003;SDS011;59025;42.050;-8.660;2022-07-18T12:31:36;4.82;;;2.50;;
71003;SDS011;59025;42.050;-8.660;2022-07-18T12:34:07;10.68;;;2.88;;
71003;SDS011;59025;42.050;-8.660;2022-07-18T12:36:49;11.13;;;2.60;;
71003;SDS011;59025;42.050;-8.660;2022-07-18T12:42:03;7.78;;;2.42;;
71003;SDS011;59025;42.050;-8.660;2022-07-18T12:44:34;11.35;;;2.70;;
71003;SDS011;59025;42.050;-8.660;2022-07-18T12:47:02;7.65;;;3.08;;
71003;SDS011;59025;42.050;-8.660;2022-07-18T12:49:29;7.57;;;2.20;;
71003;SDS011;59025;42.050;-8.660;2022-07-18T12:51:57;8.57;;;2.73;;
71003;SDS011;59025;42.050;-8.660;2022-07-18T12:54:24;7.07;;;1.80;;
71003;SDS011;59025;42.050;-8.660;2022-07-18T12:56:52;8.00;;;2.00;;
71003;SDS011;59025;42.050;-8.660;2022-07-18T12:59:19;4.28;;;2.00;;
71003;SDS011;59025;42.050;-8.660;2022-07-18T13:01:48;6.60;;;2.05;;
71003;SDS011;59025;42.050;-8.660;2022-07-18T13:04:15;4.87;;;2.20;;
71003;SDS011;59025;42.050;-8.660;2022-07-18T13:06:43;5.68;;;2.33;;
71003;SDS011;59025;42.050;-8.660;2022-07-18T13:09:10;7.22;;;2.20;;
71003;SDS011;59025;42.050;-8.660;2022-07-18T13:11:37;8.65;;;2.28;;
71003;SDS011;59025;42.050;-8.660;2022-07-18T13:14:08;5.10;;;1.95;;
71003;SDS011;59025;42.050;-8.660;2022-07-18T13:16:35;6.37;;;2.00;;
71003;SDS011;59025;42.050;-8.660;2022-07-18T13:19:04;5.35;;;2.10;;
71003;SDS011;59025;42.050;-8.660;2022-07-18T13:21:32;4.78;;;1.83;;
71003;SDS011;59025;42.050;-8.660;2022-07-18T13:23:59;4.50;;;1.75;;
71003;SDS011;59025;42.050;-8.660;2022-07-18T13:26:27;6.10;;;2.00;;
71003;SDS011;59025;42.050;-8.660;2022-07-18T13:28:54;6.27;;;2.47;;
71003;SDS011;59025;42.050;-8.660;2022-07-18T13:31:22;4.82;;;1.85;;
71003;SDS011;59025;42.050;-8.660;2022-07-18T13:33:49;4.88;;;2.10;;
71003;SDS011;59025;42.050;-8.660;2022-07-18T13:36:19;8.73;;;1.88;;
71003;SDS011;59025;42.050;-8.660;2022-07-18T13:38:46;6.18;;;1.80;;
71003;SDS011;59025;42.050;-8.660;2022-07-18T13:41:14;4.77;;;1.60;;
71003;SDS011;59025;42.050;-8.660;2022-07-18T13:43:42;6.22;;;1.90;;
71003;SDS011;59025;42.050;-8.660;2022-07-18T13:46:10;7.07;;;1.92;;
71003;SDS011;59025;42.050;-8.660;2022-07-18T13:48:38;5.45;;;1.70;;
71003;SDS011;59025;42.050;-8.660;2022-07-18T13:51:06;7.57;;;2.30;;
71003;SDS011;59025;42.050;-8.660;2022-07-18T13:53:35;7.07;;;2.17;;
71003;SDS011;59025;42.050;-8.660;2022-07-18T13:56:02;6.07;;;1.52;;
71003;SDS011;59025;42.050;-8.660;2022-07-18T13:58:30;6.18;;;1.80;;
71003;SDS011;59025;42.050;-8.660;2022-07-18T14:00:59;8.15;;;1.88;;
71003;SDS011;59025;42.050;-8.660;2022-07-18T14:03:26;8.15;;;1.90;;
71003;SDS011;59025;42.050;-8.660;2022-07-18T14:05:53;8.10;;;2.23;;
71003;SDS011;59025;42.050;-8.660;2022-07-18T14:08:21;5.65;;;1.85;;
71003;SDS011;59025;42.050;-8.660;2022-07-18T14:10:50;7.22;;;1.83;;
71003;SDS011;59025;42.050;-8.660;2022-07-18T14:13:17;6.97;;;1.92;;
71003;SDS011;59025;42.050;-8.660;2022-07-18T14:15:45;12.57;;;2.20;;
71003;SDS011;59025;42.050;-8.660;2022-07-18T14:18:12;7.10;;;2.27;;
71003;SDS011;59025;42.050;-8.660;2022-07-18T14:20:40;6.93;;;1.98;;
71003;SDS011;59025;42.050;-8.660;2022-07-18T14:23:07;8.38;;;2.17;;
71003;SDS011;59025;42.050;-8.660;2022-07-18T14:25:35;7.65;;;2.35;;
71003;SDS011;59025;42.050;-8.660;2022-07-18T14:28:04;5.55;;;2.47;;
71003;SDS011;59025;42.050;-8.660;2022-07-18T14:30:31;14.43;;;2.60;;
71003;SDS011;59025;42.050;-8.660;2022-07-18T14:32:59;9.45;;;2.42;;
71003;SDS011;59025;42.050;-8.660;2022-07-18T14:35:26;7.18;;;2.17;;
71003;SDS011;59025;42.050;-8.660;2022-07-18T14:37:54;6.43;;;2.38;;
71003;SDS011;59025;42.050;-8.660;2022-07-18T14:40:22;8.85;;;2.95;;
71003;SDS011;59025;42.050;-8.660;2022-07-18T14:42:49;13.70;;;2.53;;
71003;SDS011;59025;42.050;-8.660;2022-07-18T14:45:18;9.90;;;2.72;;
71003;SDS011;59025;42.050;-8.660;2022-07-18T14:47:46;9.52;;;2.85;;